Time;durP1;ratioP1;P1;durP2;ratioP2;P2;SDS_P1;SDS_P2;PMS_P1;PMS_P2;Temp;Humidity;BMP_temperature;BMP_pressure;BME280_temperature;BME280_humidity;BME280_pressure;Samples;Min_cycle;Max_cycle;Signal;HPM_P1;HPM_P2
2022/06/22 00:02:06;;;;;;;10.93;5.87;;;9.10;99.90;;;;;;4416735;28;654193;-69
2022/06/22 00:04:55;;;;;;;12.30;5.70;;;9.00;99.90;;;;;;4394642;28;655193;-70
2022/06/22 00:07:45;;;;;;;11.80;5.13;;;9.10;99.90;;;;;;4395555;28;654942;-69
2022/06/22 00:10:34;;;;;;;12.73;5.83;;;9.00;99.90;;;;;;4394133;28;655330;-69
2022/06/22 00:13:23;;;;;;;11.17;6.30;;;9.00;99.90;;;;;;4393748;28;655461;-70
2022/06/22 00:16:16;;;;;;;13.40;6.72;;;9.00;99.90;;;;;;4394694;28;654591;-70
2022/06/22 00:19:12;;;;;;;12.43;7.17;;;9.00;99.90;;;;;;4391423;28;655372;-70
2022/06/22 00:22:00;;;;;;;14.43;7.00;;;9.00;99.90;;;;;;4395693;28;654039;-69
2022/06/22 00:24:54;;;;;;;12.17;6.67;;;8.90;99.90;;;;;;4391798;28;654883;-70
2022/06/22 00:27:41;;;;;;;14.37;7.97;;;8.80;99.90;;;;;;4368816;28;655361;-70
2022/06/22 00:30:30;;;;;;;13.27;6.93;;;8.80;99.90;;;;;;4414204;28;655434;-70
2022/06/22 00:33:21;;;;;;;14.17;7.00;;;8.80;99.90;;;;;;4390614;28;655516;-69
2022/06/22 00:36:14;;;;;;;14.20;6.97;;;8.90;99.90;;;;;;4388584;28;655421;-70
2022/06/22 00:39:22;;;;;;;11.53;6.40;;;8.70;99.90;;;;;;4390264;28;654771;-70
2022/06/22 00:42:29;;;;;;;13.60;6.20;;;8.70;99.90;;;;;;4389353;28;654838;-70
2022/06/22 00:45:23;;;;;;;16.03;6.47;;;8.70;99.90;;;;;;4395202;28;654372;-70
2022/06/22 00:48:15;;;;;;;11.70;6.47;;;8.60;99.90;;;;;;4409261;28;654761;-70
2022/06/22 00:51:03;;;;;;;14.67;6.00;;;8.50;99.90;;;;;;4399210;28;655090;-69
2022/06/22 00:53:52;;;;;;;11.07;6.37;;;8.50;99.90;;;;;;4398216;28;656003;-70
2022/06/22 00:56:42;;;;;;;12.33;6.47;;;8.60;99.90;;;;;;4412757;28;654600;-70
2022/06/22 00:59:31;;;;;;;9.93;6.40;;;8.50;99.90;;;;;;4391382;28;654638;-69
2022/06/22 01:02:24;;;;;;;9.73;6.30;;;8.50;99.90;;;;;;4393902;28;655411;-70
2022/06/22 01:05:17;;;;;;;11.63;6.30;;;8.40;99.90;;;;;;4394827;28;653855;-70
2022/06/22 01:08:09;;;;;;;16.23;8.00;;;8.40;99.90;;;;;;4393811;28;654680;-70
2022/06/22 01:10:57;;;;;;;11.90;7.90;;;8.40;99.90;;;;;;4399453;28;654539;-70
2022/06/22 01:13:46;;;;;;;12.52;7.25;;;8.40;99.90;;;;;;4420700;28;655480;-70
2022/06/22 01:16:36;;;;;;;14.17;7.17;;;8.40;99.90;;;;;;4391882;28;655065;-70
2022/06/22 01:19:30;;;;;;;12.60;6.70;;;8.40;99.90;;;;;;4390374;28;655473;-70
2022/06/22 01:22:28;;;;;;;10.13;7.37;;;8.50;99.90;;;;;;4371140;28;654763;-70
2022/06/22 01:25:37;;;;;;;16.60;8.73;;;8.50;99.90;;;;;;4399580;28;654386;-70
2022/06/22 01:28:25;;;;;;;17.77;8.63;;;8.50;99.90;;;;;;4393710;28;654322;-70
2022/06/22 01:31:13;;;;;;;15.33;7.50;;;8.50;99.90;;;;;;4387595;28;655854;-70
2022/06/22 01:34:00;;;;;;;9.07;6.90;;;8.50;99.90;;;;;;4399483;28;655688;-70
2022/06/22 01:36:48;;;;;;;19.80;8.40;;;8.50;99.90;;;;;;4420798;28;653719;-70
2022/06/22 01:39:35;;;;;;;17.57;8.30;;;8.40;99.90;;;;;;4410798;28;655014;-70
2022/06/22 01:42:24;;;;;;;15.90;9.77;;;8.40;99.90;;;;;;4416958;28;654226;-71
2022/06/22 01:45:17;;;;;;;19.07;9.90;;;8.40;99.90;;;;;;4387344;28;654438;-70
2022/06/22 01:48:06;;;;;;;19.67;10.53;;;8.40;99.90;;;;;;4390194;28;654710;-70
2022/06/22 01:50:57;;;;;;;16.23;8.50;;;8.30;99.90;;;;;;4389402;28;655490;-70
2022/06/22 01:53:45;;;;;;;18.13;8.63;;;8.30;99.90;;;;;;4396191;28;654244;-70
2022/06/22 01:56:36;;;;;;;20.00;10.20;;;8.30;99.90;;;;;;4394172;28;654631;-69
2022/06/22 01:59:27;;;;;;;22.40;12.30;;;8.40;99.90;;;;;;4384057;28;657343;-70
2022/06/22 02:02:17;;;;;;;23.13;12.43;;;8.40;99.90;;;;;;4389984;28;655359;-69
2022/06/22 02:05:06;;;;;;;29.33;13.80;;;8.50;99.90;;;;;;4381883;28;655977;-69
2022/06/22 02:07:56;;;;;;;28.50;15.00;;;8.60;99.90;;;;;;4393225;28;655665;-70
2022/06/22 02:10:45;;;;;;;25.30;13.83;;;8.70;99.90;;;;;;4393507;28;657077;-70
2022/06/22 02:13:34;;;;;;;27.17;14.53;;;8.60;99.90;;;;;;4392559;28;656732;-69
2022/06/22 02:16:23;;;;;;;26.93;13.93;;;8.60;99.90;;;;;;4394789;28;655748;-70
2022/06/22 02:19:13;;;;;;;24.97;14.53;;;8.60;99.90;;;;;;4401632;28;655868;-70
2022/06/22 02:22:01;;;;;;;27.40;14.73;;;8.60;99.90;;;;;;4393079;28;655044;-70
2022/06/22 02:24:48;;;;;;;28.07;14.43;;;8.70;99.90;;;;;;4411716;28;656617;-70
2022/06/22 02:27:35;;;;;;;31.10;14.17;;;8.70;99.90;;;;;;4391987;28;655195;-70
2022/06/22 02:30:22;;;;;;;24.03;14.47;;;8.60;99.90;;;;;;4412961;28;656872;-71
2022/06/22 02:33:10;;;;;;;26.03;13.57;;;8.60;99.90;;;;;;4415601;28;655593;-69
2022/06/22 02:35:59;;;;;;;29.73;14.63;;;8.60;99.90;;;;;;4387713;28;656242;-70
2022/06/22 02:38:46;;;;;;;27.67;14.67;;;8.70;99.90;;;;;;4389153;28;656245;-71
2022/06/22 02:44:39;;;;;;;24.93;14.33;;;8.80;99.90;;;;;;4389732;28;656220;-70
2022/06/22 02:47:29;;;;;;;28.77;13.17;;;8.80;99.90;;;;;;4391824;28;655193;-70
2022/06/22 02:50:18;;;;;;;28.87;14.37;;;8.70;99.90;;;;;;4392066;28;656343;-70
2022/06/22 02:53:18;;;;;;;28.17;13.57;;;8.80;99.90;;;;;;4396016;28;655833;-70
2022/06/22 02:56:08;;;;;;;20.90;13.03;;;8.80;99.90;;;;;;4368442;28;655946;-70
2022/06/22 02:58:55;;;;;;;22.23;14.13;;;8.80;99.90;;;;;;4401389;28;655615;-70
2022/06/22 03:01:42;;;;;;;24.63;14.53;;;8.80;99.90;;;;;;4421855;28;655840;-70
2022/06/22 03:04:29;;;;;;;24.20;14.03;;;8.80;99.90;;;;;;4412536;28;655301;-70
2022/06/22 03:07:16;;;;;;;25.27;14.07;;;8.80;99.90;;;;;;4388947;28;655605;-70
2022/06/22 03:10:06;;;;;;;29.73;14.87;;;8.80;99.90;;;;;;4410948;28;656090;-69
2022/06/22 03:12:54;;;;;;;23.57;13.97;;;8.90;99.90;;;;;;4391791;28;656086;-70
2022/06/22 03:15:41;;;;;;;23.57;13.50;;;8.90;99.90;;;;;;4398383;28;655427;-70
2022/06/22 03:18:30;;;;;;;25.07;14.20;;;8.90;99.90;;;;;;4414001;28;655967;-70
2022/06/22 03:21:18;;;;;;;29.23;13.93;;;8.90;99.90;;;;;;4389366;28;657041;-70
2022/06/22 03:24:06;;;;;;;29.03;13.87;;;9.00;99.90;;;;;;4404273;28;655595;-70
2022/06/22 03:26:56;;;;;;;28.70;14.27;;;9.00;99.90;;;;;;4416684;28;655200;-69
2022/06/22 03:29:46;;;;;;;32.40;15.03;;;9.20;99.90;;;;;;4395266;28;655875;-70
2022/06/22 03:32:35;;;;;;;25.20;13.97;;;9.40;99.90;;;;;;4388274;28;655750;-70
2022/06/22 03:35:23;;;;;;;22.17;12.73;;;9.50;99.90;;;;;;4387737;28;656656;-70
2022/06/22 03:38:12;;;;;;;23.37;12.87;;;9.50;99.90;;;;;;4392983;28;655476;-70
2022/06/22 03:41:02;;;;;;;23.23;13.50;;;9.40;99.90;;;;;;4411996;28;655506;-70
2022/06/22 03:43:51;;;;;;;22.60;12.20;;;9.60;99.90;;;;;;4392619;28;656258;-70
2022/06/22 03:46:41;;;;;;;22.63;12.37;;;9.70;99.90;;;;;;4392429;28;656132;-70
2022/06/22 03:49:30;;;;;;;22.63;12.30;;;9.70;99.90;;;;;;4389765;28;656277;-70
2022/06/22 03:52:18;;;;;;;29.77;12.90;;;9.70;99.90;;;;;;4385355;28;656709;-70
2022/06/22 03:55:07;;;;;;;21.90;11.80;;;9.80;99.90;;;;;;4388423;28;655641;-70
2022/06/22 03:57:55;;;;;;;26.03;10.93;;;9.80;99.90;;;;;;4413026;28;655823;-70
2022/06/22 04:00:44;;;;;;;20.13;10.57;;;9.80;99.90;;;;;;4390501;28;656684;-70
2022/06/22 04:03:32;;;;;;;21.00;11.10;;;9.80;99.90;;;;;;4392045;28;655949;-70
2022/06/22 04:06:22;;;;;;;20.17;10.40;;;9.90;99.90;;;;;;4411819;28;656341;-70
2022/06/22 04:09:12;;;;;;;20.03;10.67;;;10.10;99.90;;;;;;4384508;28;655239;-70
2022/06/22 04:12:01;;;;;;;27.37;10.80;;;10.10;99.90;;;;;;4393143;28;656898;-70
2022/06/22 04:14:52;;;;;;;22.33;9.67;;;10.10;99.90;;;;;;4395461;28;656689;-70
2022/06/22 04:17:41;;;;;;;22.40;10.80;;;10.40;99.90;;;;;;4387938;28;655237;-70
2022/06/22 04:20:54;;;;;;;18.33;8.90;;;10.50;99.90;;;;;;4389725;28;656558;-70
2022/06/22 04:23:43;;;;;;;21.80;9.53;;;10.60;99.90;;;;;;4393257;28;655810;-71
2022/06/22 04:26:33;;;;;;;16.67;8.37;;;10.80;99.90;;;;;;4391453;28;655749;-70
2022/06/22 04:29:36;;;;;;;13.73;7.80;;;11.00;99.90;;;;;;4393460;28;655529;-70
2022/06/22 04:32:24;;;;;;;16.03;6.83;;;11.20;99.90;;;;;;4386476;28;656204;-71
2022/06/22 04:35:24;;;;;;;14.37;7.03;;;11.50;99.90;;;;;;4388373;28;656065;-70
2022/06/22 04:38:13;;;;;;;16.03;6.13;;;11.60;99.90;;;;;;4366577;28;655965;-70
2022/06/22 04:41:04;;;;;;;11.87;6.27;;;11.80;99.90;;;;;;4392991;28;655561;-70
2022/06/22 04:43:51;;;;;;;20.00;6.47;;;11.70;99.90;;;;;;4390903;28;656022;-70
2022/06/22 04:46:40;;;;;;;14.57;6.60;;;11.80;99.90;;;;;;4410063;28;655843;-70
2022/06/22 04:49:28;;;;;;;10.83;6.77;;;12.00;99.90;;;;;;4392621;28;657066;-70
2022/06/22 04:52:19;;;;;;;11.27;7.07;;;12.00;99.90;;;;;;4389721;28;655142;-70
2022/06/22 04:55:07;;;;;;;16.43;7.47;;;12.00;99.90;;;;;;4389530;28;655733;-71
2022/06/22 04:57:55;;;;;;;14.60;7.80;;;12.00;99.90;;;;;;4415855;28;655287;-70
2022/06/22 05:00:42;;;;;;;15.97;9.33;;;12.20;99.90;;;;;;4391653;28;655749;-71
2022/06/22 05:03:29;;;;;;;17.70;10.47;;;12.30;99.90;;;;;;4412310;28;655347;-70
2022/06/22 05:06:19;;;;;;;20.90;10.57;;;12.40;99.90;;;;;;4386697;28;656278;-70
2022/06/22 05:09:13;;;;;;;21.63;10.10;;;12.50;99.90;;;;;;4390663;28;656923;-70
2022/06/22 05:12:00;;;;;;;17.40;10.30;;;12.60;99.90;;;;;;4404523;28;656369;-70
2022/06/22 05:14:47;;;;;;;20.60;9.03;;;12.80;99.90;;;;;;4413889;28;657400;-70
2022/06/22 05:17:36;;;;;;;14.60;9.20;;;12.90;99.90;;;;;;4408738;28;656240;-70
2022/06/22 05:20:27;;;;;;;15.87;9.50;;;13.10;99.90;;;;;;4406205;28;656729;-69
2022/06/22 05:23:14;;;;;;;19.87;11.70;;;13.20;99.90;;;;;;4384145;28;655180;-66
2022/06/22 05:26:06;;;;;;;17.37;11.67;;;13.10;99.90;;;;;;4387987;28;656855;-67
2022/06/22 05:28:55;;;;;;;22.43;12.60;;;13.00;99.90;;;;;;4386902;28;657853;-67
2022/06/22 05:31:44;;;;;;;19.57;11.27;;;13.10;99.90;;;;;;4385341;28;658187;-67
2022/06/22 05:34:34;;;;;;;29.67;11.60;;;13.20;99.90;;;;;;4385586;28;656558;-67
2022/06/22 05:37:22;;;;;;;21.07;10.30;;;13.20;99.90;;;;;;4387424;28;656806;-66
2022/06/22 05:40:11;;;;;;;21.73;10.80;;;13.20;99.90;;;;;;4405260;28;656505;-66
2022/06/22 05:42:59;;;;;;;20.13;10.97;;;13.20;99.90;;;;;;4383734;28;656972;-66
2022/06/22 05:45:48;;;;;;;17.43;10.90;;;13.20;99.90;;;;;;4386854;28;658320;-66
2022/06/22 05:48:39;;;;;;;16.33;9.93;;;13.30;99.90;;;;;;4386106;28;656154;-66
2022/06/22 05:51:31;;;;;;;19.03;10.50;;;13.30;99.90;;;;;;4386973;28;655466;-67
2022/06/22 05:54:20;;;;;;;20.67;10.27;;;13.40;99.90;;;;;;4380937;28;657544;-67
2022/06/22 05:57:12;;;;;;;19.27;9.10;;;13.60;99.90;;;;;;4385444;28;657789;-67
2022/06/22 06:00:03;;;;;;;15.50;8.30;;;13.70;99.90;;;;;;4383689;28;657234;-66
2022/06/22 06:02:56;;;;;;;16.13;8.33;;;13.80;99.90;;;;;;4390188;28;656931;-67
2022/06/22 06:05:45;;;;;;;12.97;6.93;;;14.00;99.90;;;;;;4384836;28;655684;-66
2022/06/22 06:08:38;;;;;;;10.83;5.40;;;14.10;99.90;;;;;;4387672;28;656161;-69
2022/06/22 06:11:26;;;;;;;12.43;5.13;;;14.40;99.90;;;;;;4364229;28;655944;-68
2022/06/22 06:14:15;;;;;;;10.20;5.00;;;14.60;99.90;;;;;;4407446;28;655450;-68
2022/06/22 06:17:06;;;;;;;14.03;5.40;;;14.70;99.90;;;;;;4381303;28;656724;-68
2022/06/22 06:19:53;;;;;;;14.27;5.53;;;14.80;99.90;;;;;;4385646;28;656515;-68
2022/06/22 06:22:40;;;;;;;13.90;5.40;;;15.00;99.90;;;;;;4393033;28;656671;-68
2022/06/22 06:28:39;;;;;;;8.73;4.87;;;15.30;99.90;;;;;;4375800;28;656078;-68
2022/06/22 06:31:28;;;;;;;13.23;4.43;;;15.50;99.90;;;;;;4391060;28;654728;-68
2022/06/22 06:34:18;;;;;;;6.40;3.37;;;15.80;99.90;;;;;;4389273;28;655605;-68
2022/06/22 06:37:09;;;;;;;5.00;3.33;;;16.10;99.90;;;;;;4388587;28;654612;-68
2022/06/22 06:39:56;;;;;;;4.57;2.73;;;16.20;99.90;;;;;;4388990;28;654846;-68
2022/06/22 06:42:47;;;;;;;4.37;3.43;;;16.30;99.90;;;;;;4411725;28;654750;-68
2022/06/22 06:45:34;;;;;;;8.93;2.50;;;16.20;99.90;;;;;;4382955;28;654643;-66
2022/06/22 06:48:23;;;;;;;2.93;1.67;;;16.30;99.90;;;;;;4390659;28;654213;-66
2022/06/22 06:51:12;;;;;;;3.53;1.60;;;16.80;99.90;;;;;;4405874;28;654474;-66
2022/06/22 06:54:02;;;;;;;3.30;1.73;;;16.80;99.90;;;;;;4414362;28;654476;-66
2022/06/22 06:56:50;;;;;;;3.70;1.87;;;16.60;99.90;;;;;;4392170;28;655040;-66
2022/06/22 06:59:39;;;;;;;4.53;2.00;;;16.70;99.90;;;;;;4396320;28;655397;-66
2022/06/22 07:02:29;;;;;;;6.27;2.00;;;17.00;99.90;;;;;;4397101;28;654489;-66
2022/06/22 07:05:18;;;;;;;4.75;2.20;;;17.00;99.90;;;;;;4393441;28;655001;-66
2022/06/22 07:08:09;;;;;;;4.15;2.00;;;17.00;99.90;;;;;;4399806;28;654346;-66
2022/06/22 07:10:59;;;;;;;4.73;2.10;;;17.20;99.90;;;;;;4401682;28;655019;-66
2022/06/22 07:13:48;;;;;;;3.80;1.93;;;17.30;96.40;;;;;;4397625;28;654571;-66
2022/06/22 07:16:35;;;;;;;9.53;2.50;;;17.40;99.90;;;;;;4398718;28;654816;-66
2022/06/22 07:19:23;;;;;;;4.57;2.00;;;17.40;99.90;;;;;;4418550;28;655734;-66
2022/06/22 07:22:12;;;;;;;5.13;1.90;;;17.40;97.70;;;;;;4400060;28;654775;-65
2022/06/22 07:25:03;;;;;;;3.77;1.70;;;17.30;99.80;;;;;;4416103;28;654028;-65
2022/06/22 07:27:58;;;;;;;3.88;1.70;;;17.70;99.90;;;;;;4397728;28;654539;-66
2022/06/22 07:30:47;;;;;;;5.73;2.10;;;17.80;94.40;;;;;;4373758;28;654863;-66
2022/06/22 07:33:37;;;;;;;4.10;1.30;;;17.90;99.90;;;;;;4398776;28;654551;-66
2022/06/22 07:36:27;;;;;;;1.57;1.10;;;18.00;86.50;;;;;;4414833;28;654187;-66
2022/06/22 07:39:16;;;;;;;3.17;1.30;;;18.00;79.70;;;;;;4409111;28;654932;-66
2022/06/22 07:42:05;;;;;;;2.40;1.13;;;18.10;86.20;;;;;;4394781;28;655858;-66
2022/06/22 07:44:52;;;;;;;3.67;1.73;;;18.70;78.30;;;;;;4393042;28;655849;-66
2022/06/22 07:47:41;;;;;;;4.90;2.10;;;18.60;79.80;;;;;;4409812;28;654194;-66
2022/06/22 07:50:30;;;;;;;4.40;1.60;;;18.70;81.10;;;;;;4390895;28;655743;-66
2022/06/22 07:53:23;;;;;;;6.97;1.77;;;18.40;78.80;;;;;;4389849;28;656123;-66
2022/06/22 07:56:12;;;;;;;5.17;1.90;;;19.10;91.50;;;;;;4379150;28;654367;-66
2022/06/22 07:59:04;;;;;;;4.53;2.00;;;18.90;82.90;;;;;;4421400;28;655023;-66
2022/06/22 08:01:51;;;;;;;5.00;1.80;;;18.60;82.50;;;;;;4397483;28;654463;-66
2022/06/22 08:04:40;;;;;;;8.47;2.20;;;18.70;88.40;;;;;;4412183;28;655928;-66
2022/06/22 08:07:38;;;;;;;8.03;2.40;;;18.90;86.00;;;;;;4395493;28;655962;-65
2022/06/22 08:10:27;;;;;;;3.90;1.73;;;19.00;83.30;;;;;;4379089;28;654054;-66
2022/06/22 08:13:16;;;;;;;6.57;2.20;;;18.90;91.20;;;;;;4409876;28;654549;-66
2022/06/22 08:16:06;;;;;;;5.07;1.80;;;19.00;82.90;;;;;;4388707;28;655918;-66
2022/06/22 08:18:54;;;;;;;7.27;2.07;;;19.40;82.40;;;;;;4391772;28;655426;-66
2022/06/22 08:21:42;;;;;;;9.10;2.10;;;19.80;89.30;;;;;;4397324;28;654401;-66
2022/06/22 08:24:30;;;;;;;7.60;2.20;;;19.20;71.20;;;;;;4416346;28;654265;-66
2022/06/22 08:27:17;;;;;;;9.83;2.20;;;19.80;77.00;;;;;;4387721;28;655845;-66
2022/06/22 08:30:06;;;;;;;10.13;2.07;;;19.80;76.10;;;;;;4405164;28;654330;-66
2022/06/22 08:33:00;;;;;;;3.40;1.40;;;20.10;73.80;;;;;;4418089;28;657123;-66
2022/06/22 08:35:50;;;;;;;8.07;2.10;;;19.60;72.70;;;;;;4369407;28;655674;-66
2022/06/22 08:38:39;;;;;;;4.63;2.20;;;19.70;78.90;;;;;;4388035;28;655376;-66
2022/06/22 08:41:36;;;;;;;4.65;2.00;;;20.00;74.30;;;;;;4389748;28;654554;-66
2022/06/22 08:44:30;;;;;;;5.07;1.77;;;19.80;70.00;;;;;;4391082;28;655046;-66
2022/06/22 08:47:31;;;;;;;4.97;1.80;;;19.90;71.50;;;;;;4363264;28;654813;-66
2022/06/22 08:50:39;;;;;;;12.00;1.77;;;19.90;67.40;;;;;;4387638;28;655053;-66
2022/06/22 08:53:40;;;;;;;4.37;1.67;;;19.80;68.00;;;;;;4364006;28;656243;-66
2022/06/22 08:56:32;;;;;;;5.23;1.80;;;20.60;68.10;;;;;;4364296;28;654939;-66
2022/06/22 08:59:34;;;;;;;9.23;1.50;;;20.30;67.30;;;;;;4384191;28;654902;-66
2022/06/22 09:02:33;;;;;;;4.87;1.50;;;20.30;64.30;;;;;;4394915;28;654615;-66
2022/06/22 09:05:53;;;;;;;4.73;1.47;;;20.60;64.20;;;;;;4374668;28;655121;-66
2022/06/22 09:09:00;;;;;;;3.57;1.23;;;20.40;64.50;;;;;;4381677;28;654639;-66
2022/06/22 09:11:54;;;;;;;4.70;1.50;;;21.00;67.10;;;;;;4374772;28;655288;-66
2022/06/22 09:15:08;;;;;;;8.47;1.50;;;21.00;65.60;;;;;;4401775;28;654880;-65
2022/06/22 09:18:05;;;;;;;5.50;1.23;;;20.70;62.10;;;;;;4396867;28;655064;-66
2022/06/22 09:20:59;;;;;;;3.80;1.40;;;21.20;64.00;;;;;;4367781;28;654984;-66
2022/06/22 09:23:53;;;;;;;3.17;1.37;;;21.50;66.60;;;;;;4366491;28;654804;-66
2022/06/22 09:26:43;;;;;;;2.97;1.23;;;21.50;59.80;;;;;;4373359;28;654738;-66
2022/06/22 09:29:39;;;;;;;3.97;1.40;;;21.60;65.70;;;;;;4390989;28;654737;-66
2022/06/22 09:32:57;;;;;;;4.38;1.35;;;22.10;62.50;;;;;;4392139;28;654459;-66
2022/06/22 09:36:13;;;;;;;4.60;1.43;;;21.90;62.20;;;;;;4385856;28;654744;-66
2022/06/22 09:39:20;;;;;;;5.13;1.20;;;22.10;66.80;;;;;;4385660;28;654753;-66
2022/06/22 09:42:16;;;;;;;5.67;1.70;;;22.00;63.60;;;;;;4385752;28;654729;-66
2022/06/22 09:45:28;;;;;;;11.80;1.70;;;21.70;63.40;;;;;;4390339;28;655296;-66
2022/06/22 09:48:23;;;;;;;5.77;1.50;;;21.80;64.30;;;;;;4369896;28;655730;-66
2022/06/22 09:51:35;;;;;;;2.57;1.57;;;22.40;66.70;;;;;;4393524;28;654218;-66
2022/06/22 09:58:21;;;;;;;5.03;1.47;;;22.20;63.90;;;;;;4318929;28;654771;-66
2022/06/22 10:01:11;;;;;;;14.30;1.50;;;22.50;63.40;;;;;;4358708;28;654840;-66
2022/06/22 10:04:33;;;;;;;4.10;1.50;;;23.00;64.50;;;;;;4392166;28;656721;-65
2022/06/22 10:07:26;;;;;;;2.47;1.10;;;22.40;62.40;;;;;;4374343;28;655435;-66
2022/06/22 10:10:23;;;;;;;2.77;1.00;;;23.10;60.80;;;;;;4385224;28;655326;-66
2022/06/22 10:13:30;;;;;;;4.47;1.00;;;23.70;62.00;;;;;;4371279;28;654810;-66
2022/06/22 10:16:39;;;;;;;2.73;1.23;;;23.60;61.10;;;;;;4354795;28;656047;-65
2022/06/22 10:19:50;;;;;;;2.93;1.30;;;23.20;59.90;;;;;;4387385;28;654897;-65
2022/06/22 10:22:50;;;;;;;2.63;1.50;;;23.00;61.20;;;;;;4389051;28;654718;-65
2022/06/22 10:25:51;;;;;;;4.17;1.40;;;22.40;59.60;;;;;;4364764;28;655187;-65
2022/06/22 10:28:59;;;;;;;4.73;1.40;;;22.10;60.60;;;;;;4388768;28;654857;-66
2022/06/22 10:31:57;;;;;;;2.93;1.63;;;22.40;59.30;;;;;;4391714;28;654896;-66
2022/06/22 10:34:52;;;;;;;4.10;1.30;;;22.60;64.50;;;;;;4386545;28;654809;-66
2022/06/22 10:37:48;;;;;;;3.63;1.13;;;23.00;63.40;;;;;;4385223;28;654881;-65
2022/06/22 10:47:25;;;;;;;1.90;0.90;;;23.40;54.40;;;;;;4388001;28;654900;-66
2022/06/22 10:50:36;;;;;;;2.73;0.90;;;23.10;57.20;;;;;;4367278;28;656109;-66
2022/06/22 10:54:02;;;;;;;3.90;1.07;;;23.80;57.80;;;;;;4385533;28;654761;-66
2022/06/22 10:57:15;;;;;;;2.97;1.10;;;23.40;56.90;;;;;;4392073;28;654105;-66
2022/06/22 11:00:11;;;;;;;4.33;1.40;;;23.20;58.20;;;;;;4370020;28;654916;-66
2022/06/22 11:03:26;;;;;;;2.28;0.90;;;22.90;59.30;;;;;;4386551;28;654476;-65
2022/06/22 11:06:42;;;;;;;2.63;1.07;;;22.90;61.00;;;;;;4388045;28;655077;-66
2022/06/22 11:10:02;;;;;;;3.17;1.20;;;22.70;61.80;;;;;;4384347;28;654700;-66
2022/06/22 11:12:57;;;;;;;5.40;1.10;;;23.10;61.50;;;;;;4373430;28;654741;-66
2022/06/22 11:16:07;;;;;;;3.35;1.02;;;23.80;63.20;;;;;;4392146;28;654887;-65
2022/06/22 11:19:10;;;;;;;3.20;1.20;;;23.60;58.50;;;;;;4392108;28;654711;-66
2022/06/22 11:22:06;;;;;;;2.03;0.90;;;23.80;59.50;;;;;;4363343;28;655240;-66
2022/06/22 11:30:48;;;;;;;4.30;1.37;;;23.40;58.80;;;;;;4387414;28;654800;-65
2022/06/22 11:32:09;;;;;;;3.63;1.23;;;23.70;59.10;;;;;;4369393;28;655013;-66
2022/06/22 11:35:25;;;;;;;4.53;1.75;;;24.40;58.70;;;;;;4392161;28;655348;-66
2022/06/22 11:38:30;;;;;;;4.00;1.40;;;24.60;65.20;;;;;;4388129;28;654758;-66
2022/06/22 11:41:38;;;;;;;5.70;1.45;;;24.90;63.00;;;;;;4366138;28;655417;-66
2022/06/22 11:48:24;;;;;;;4.30;1.50;;;23.70;56.30;;;;;;4364239;28;655162;-66
2022/06/22 11:51:17;;;;;;;5.05;1.40;;;23.80;60.50;;;;;;4392295;28;654426;-65
2022/06/22 11:54:22;;;;;;;4.13;1.48;;;23.70;56.10;;;;;;4384358;28;654358;-65
2022/06/22 11:57:40;;;;;;;7.13;1.67;;;23.40;60.40;;;;;;4386743;28;655846;-65
2022/06/22 12:00:35;;;;;;;5.90;1.40;;;22.80;59.10;;;;;;4368621;28;655756;-66
2022/06/22 12:03:57;;;;;;;7.07;1.13;;;23.60;58.50;;;;;;4367502;28;655037;-66
2022/06/22 12:06:58;;;;;;;2.17;1.13;;;23.40;54.50;;;;;;4386697;28;655068;-66
2022/06/22 12:09:54;;;;;;;2.43;1.20;;;23.40;57.70;;;;;;4377382;28;654559;-65
2022/06/22 12:13:06;;;;;;;2.13;1.40;;;22.20;55.70;;;;;;4367701;28;655320;-65
2022/06/22 12:16:00;;;;;;;2.47;1.00;;;22.10;58.40;;;;;;4388733;28;655995;-65
2022/06/22 12:18:55;;;;;;;3.57;1.23;;;22.20;57.90;;;;;;4363607;28;654824;-65
2022/06/22 12:22:12;;;;;;;8.87;1.40;;;22.10;57.20;;;;;;4362942;28;655166;-65
2022/06/22 12:25:07;;;;;;;7.87;1.40;;;21.80;58.20;;;;;;4392406;28;654814;-65
2022/06/22 12:27:58;;;;;;;5.80;1.23;;;22.60;58.90;;;;;;4391501;28;655778;-66
2022/06/22 12:30:51;;;;;;;5.85;1.42;;;23.20;57.30;;;;;;4395314;28;654707;-66
2022/06/22 12:33:42;;;;;;;3.33;1.30;;;24.60;59.50;;;;;;4381738;28;654694;-66
2022/06/22 12:36:30;;;;;;;4.82;1.35;;;24.90;56.30;;;;;;4389722;28;654971;-66
2022/06/22 12:39:20;;;;;;;3.08;1.33;;;24.90;55.90;;;;;;4393100;28;655741;-66
2022/06/22 12:42:16;;;;;;;3.47;1.40;;;24.60;54.00;;;;;;4391390;28;655883;-66
2022/06/22 12:45:16;;;;;;;3.33;1.25;;;25.30;52.70;;;;;;4393666;28;654306;-66
2022/06/22 12:48:36;;;;;;;2.45;1.20;;;24.90;51.60;;;;;;4390823;28;654666;-66
2022/06/22 12:51:28;;;;;;;6.15;1.52;;;25.70;52.00;;;;;;4387932;28;654834;-66
2022/06/22 12:54:17;;;;;;;6.13;1.50;;;24.20;51.80;;;;;;4367961;28;654471;-66
2022/06/22 12:57:05;;;;;;;3.85;1.40;;;23.80;54.40;;;;;;4413205;28;654645;-65
2022/06/22 12:59:55;;;;;;;7.20;1.20;;;22.60;55.70;;;;;;4391139;28;654890;-66
2022/06/22 13:02:42;;;;;;;5.20;1.60;;;22.80;56.70;;;;;;4391781;28;654972;-66
2022/06/22 13:05:32;;;;;;;3.63;1.10;;;22.40;60.50;;;;;;4407525;28;654490;-66
2022/06/22 13:08:21;;;;;;;9.95;1.42;;;23.40;59.90;;;;;;4407924;28;654394;-66
2022/06/22 13:11:23;;;;;;;4.28;1.10;;;24.20;55.70;;;;;;4386293;28;656785;-66
2022/06/22 13:14:21;;;;;;;3.83;1.20;;;24.30;55.70;;;;;;4364432;28;654930;-66
2022/06/22 13:17:17;;;;;;;3.65;1.38;;;24.90;55.10;;;;;;4389575;28;654657;-66
2022/06/22 13:20:27;;;;;;;1.98;1.00;;;24.70;54.20;;;;;;4389937;28;654771;-66
2022/06/22 13:23:47;;;;;;;3.53;1.27;;;24.40;53.60;;;;;;4411362;28;654518;-66
2022/06/22 13:26:42;;;;;;;3.20;1.10;;;24.20;52.60;;;;;;4349192;28;654875;-66
2022/06/22 13:29:33;;;;;;;5.18;1.60;;;24.10;54.80;;;;;;4385184;28;654488;-66
2022/06/22 13:32:20;;;;;;;3.35;1.40;;;23.90;54.50;;;;;;4380776;28;654354;-66
2022/06/22 13:35:08;;;;;;;3.05;1.17;;;23.60;57.20;;;;;;4416240;28;656147;-66
2022/06/22 13:38:02;;;;;;;5.85;1.05;;;23.90;56.60;;;;;;4403289;28;654537;-66
2022/06/22 13:40:54;;;;;;;4.78;1.30;;;24.00;54.20;;;;;;4396011;28;655219;-66
2022/06/22 13:43:59;;;;;;;3.45;1.20;;;24.90;53.80;;;;;;4394776;28;654780;-66
2022/06/22 13:47:00;;;;;;;2.50;1.10;;;25.20;55.40;;;;;;4390783;28;654440;-66
2022/06/22 13:50:13;;;;;;;2.67;1.00;;;25.20;52.30;;;;;;4369151;28;655323;-66
2022/06/22 13:52:59;;;;;;;2.90;1.00;;;24.60;53.20;;;;;;4391988;28;654529;-66
2022/06/22 13:55:51;;;;;;;2.35;1.10;;;24.30;54.70;;;;;;4397388;28;654600;-65
2022/06/22 13:58:42;;;;;;;3.83;1.20;;;23.30;53.50;;;;;;4394286;28;655899;-65
2022/06/22 14:01:34;;;;;;;3.27;1.40;;;23.20;55.90;;;;;;4396908;28;654439;-65
2022/06/22 14:04:23;;;;;;;4.30;1.37;;;23.60;55.50;;;;;;4382573;28;655950;-65
2022/06/22 14:07:12;;;;;;;5.03;1.27;;;23.20;56.10;;;;;;4392922;28;654655;-65
2022/06/22 14:10:05;;;;;;;3.50;1.20;;;23.00;56.00;;;;;;4417243;28;654709;-65
2022/06/22 14:12:53;;;;;;;4.13;1.13;;;23.10;57.20;;;;;;4374717;28;655242;-66
2022/06/22 14:15:44;;;;;;;3.53;1.10;;;24.00;62.60;;;;;;4402835;28;654471;-66
2022/06/22 14:18:37;;;;;;;3.72;1.30;;;24.40;58.60;;;;;;4397864;28;654055;-66
2022/06/22 14:21:30;;;;;;;4.22;1.60;;;24.30;54.00;;;;;;4398205;28;654303;-66
2022/06/22 14:24:19;;;;;;;3.13;1.10;;;24.80;56.00;;;;;;4365280;28;654905;-65
2022/06/22 14:27:27;;;;;;;5.40;1.40;;;24.80;54.80;;;;;;4399263;28;654372;-66
2022/06/22 14:30:19;;;;;;;4.60;1.27;;;25.20;53.30;;;;;;4385437;28;654623;-66
2022/06/22 14:33:38;;;;;;;2.60;1.20;;;24.60;53.10;;;;;;4389284;28;654570;-66
2022/06/22 14:36:30;;;;;;;7.32;1.30;;;23.30;54.50;;;;;;4299898;28;654900;-65
2022/06/22 14:39:20;;;;;;;3.20;1.10;;;23.40;54.10;;;;;;4384245;28;655725;-66
2022/06/22 14:42:13;;;;;;;3.67;1.20;;;23.70;55.10;;;;;;4394112;28;655626;-66
2022/06/22 14:45:02;;;;;;;2.58;1.17;;;24.00;53.00;;;;;;4378748;28;655144;-66
2022/06/22 14:47:56;;;;;;;4.18;1.15;;;24.00;54.50;;;;;;4412521;28;654707;-66
2022/06/22 14:50:46;;;;;;;4.38;1.05;;;24.20;55.00;;;;;;4393246;28;654962;-65
2022/06/22 14:53:44;;;;;;;2.03;1.00;;;24.40;54.40;;;;;;4389503;28;655779;-66
2022/06/22 14:56:35;;;;;;;2.55;1.15;;;25.10;55.20;;;;;;4371268;28;655455;-66
2022/06/22 14:59:26;;;;;;;3.60;1.00;;;25.10;49.90;;;;;;4387495;28;655699;-66
2022/06/22 15:02:16;;;;;;;3.75;1.10;;;25.30;52.20;;;;;;4391948;28;654940;-66
2022/06/22 15:05:05;;;;;;;2.15;1.10;;;25.30;52.80;;;;;;4390205;28;654778;-66
2022/06/22 15:07:55;;;;;;;7.80;1.40;;;25.00;52.60;;;;;;4394737;28;656360;-66
2022/06/22 15:10:45;;;;;;;3.35;1.42;;;24.50;53.40;;;;;;4392390;28;655199;-66
2022/06/22 15:13:32;;;;;;;4.18;1.17;;;24.80;57.70;;;;;;4394822;28;654562;-66